createdAt,value
2023-05-13T15:16:26.212Z,98380.69
2023-05-13T15:18:53.019Z,98383.84
2023-05-13T15:21:19.648Z,98377.00
2023-05-13T15:23:46.317Z,98376.81
2023-05-13T15:26:13.072Z,98378.91
2023-05-13T15:28:39.728Z,98385.88
2023-05-13T15:31:06.425Z,98378.00
2023-05-13T15:33:33.089Z,98379.19
2023-05-13T15:35:59.901Z,98375.81
2023-05-13T15:38:27.225Z,98381.31
2023-05-13T15:40:53.862Z,98382.16
2023-05-13T15:43:20.525Z,98380.50
2023-05-13T15:45:47.166Z,98387.28
2023-05-13T15:48:14.038Z,98378.00
2023-05-13T15:50:40.695Z,98378.56
2023-05-13T15:53:07.376Z,98371.75
2023-05-13T15:55:34.306Z,98368.19
2023-05-13T15:58:00.938Z,98377.19
2023-05-13T16:00:27.526Z,98369.03
2023-05-13T16:02:54.395Z,98371.22
2023-05-13T16:05:20.999Z,98369.75
2023-05-13T16:07:47.594Z,98362.13
2023-05-13T16:10:15.638Z,98357.63
2023-05-13T16:12:43.048Z,98363.31
2023-05-13T16:15:10.211Z,98365.50
2023-05-13T16:17:36.952Z,98363.69
2023-05-13T16:20:03.869Z,98364.25
2023-05-13T16:22:34.383Z,98355.53
2023-05-13T16:25:01.518Z,98361.53
2023-05-13T16:27:31.906Z,98364.66
2023-05-13T16:29:58.962Z,98365.13
2023-05-13T16:32:25.627Z,98351.38
2023-05-13T16:34:52.552Z,98358.47
2023-05-13T16:37:19.211Z,98365.81
2023-05-13T16:39:45.932Z,98361.75
2023-05-13T16:42:12.689Z,98362.69
2023-05-13T16:44:39.321Z,98362.78
2023-05-13T16:47:06.830Z,98353.41
2023-05-13T16:49:33.453Z,98358.84
2023-05-13T16:52:00.310Z,98362.03
2023-05-13T16:54:26.886Z,98360.09
2023-05-13T16:56:53.502Z,98361.28
2023-05-13T16:59:23.766Z,98360.47
2023-05-13T17:01:50.563Z,98352.00
2023-05-13T17:04:18.131Z,98346.44
2023-05-13T17:06:44.756Z,98351.22
2023-05-13T17:09:11.572Z,98350.28
2023-05-13T17:11:38.299Z,98354.88
2023-05-13T17:14:05.232Z,98347.59
2023-05-13T17:16:32.048Z,98352.19
2023-05-13T17:18:59.492Z,98351.56
2023-05-13T17:21:26.385Z,98347.91
2023-05-13T17:23:53.057Z,98347.41
2023-05-13T17:26:20.028Z,98354.53
2023-05-13T17:28:46.653Z,98351.00
2023-05-13T17:31:13.283Z,98348.25
2023-05-13T17:33:39.989Z,98349.81
2023-05-13T17:36:06.756Z,98354.34
2023-05-13T17:38:33.375Z,98346.50
2023-05-13T17:40:59.964Z,98349.53
2023-05-13T17:43:27.179Z,98354.88
2023-05-13T17:45:53.946Z,98349.25
2023-05-13T17:48:20.672Z,98345.94
2023-05-13T17:50:47.357Z,98349.53
2023-05-13T17:53:14.024Z,98348.03
2023-05-13T17:55:40.737Z,98342.78
2023-05-13T17:58:07.424Z,98342.97
2023-05-13T18:00:34.085Z,98344.41
2023-05-13T18:03:00.771Z,98341.22
2023-05-13T18:05:27.600Z,98341.88
2023-05-13T18:07:54.246Z,98335.06
2023-05-13T18:10:21.239Z,98347.88
2023-05-13T18:12:48.153Z,98348.31
2023-05-13T18:15:14.822Z,98351.56
2023-05-13T18:17:41.534Z,98357.50
2023-05-13T18:20:08.522Z,98354.81
2023-05-13T18:22:35.207Z,98358.94
2023-05-13T18:25:02.931Z,98356.97
2023-05-13T18:27:29.552Z,98364.31
2023-05-13T18:29:56.236Z,98365.69
2023-05-13T18:32:23.063Z,98371.38
2023-05-13T18:34:49.783Z,98372.63
2023-05-13T18:37:16.373Z,98368.72
2023-05-13T18:39:45.906Z,98375.47
2023-05-13T18:42:12.664Z,98379.72
2023-05-13T18:44:39.248Z,98380.91
2023-05-13T18:47:06.369Z,98382.44
2023-05-13T18:49:33.129Z,98380.81
2023-05-13T18:51:59.781Z,98374.72
2023-05-13T18:54:29.538Z,98377.56
2023-05-13T18:56:56.432Z,98376.78
2023-05-13T18:59:23.228Z,98379.81
2023-05-13T19:01:50.052Z,98392.38
2023-05-13T19:04:17.551Z,98389.31
2023-05-13T19:06:44.822Z,98389.13
2023-05-13T19:09:11.459Z,98390.59
2023-05-13T19:11:38.040Z,98392.78
2023-05-13T19:14:04.637Z,98391.81
2023-05-13T19:16:31.233Z,98389.84
2023-05-13T19:18:57.997Z,98392.19
2023-05-13T19:21:24.724Z,98391.84
2023-05-13T19:23:51.385Z,98397.81
2023-05-13T19:26:18.059Z,98392.97
2023-05-13T19:28:45.805Z,98389.50
2023-05-13T19:31:12.501Z,98400.81
2023-05-13T19:33:39.181Z,98403.81
2023-05-13T19:36:06.644Z,98400.16
2023-05-13T19:38:34.043Z,98408.31
2023-05-13T19:41:00.700Z,98410.97
2023-05-13T19:43:27.620Z,98416.63
2023-05-13T19:45:56.561Z,98408.69
2023-05-13T19:48:23.352Z,98410.50
2023-05-13T19:50:53.555Z,98409.66
2023-05-13T19:53:21.665Z,98404.03
2023-05-13T19:55:48.306Z,98410.19
2023-05-13T19:58:14.881Z,98406.03
2023-05-13T20:00:44.210Z,98406.50
2023-05-13T20:03:11.191Z,98415.81
2023-05-13T20:05:39.642Z,98421.13
2023-05-13T20:08:06.489Z,98416.31
2023-05-13T20:10:35.612Z,98423.44
2023-05-13T20:13:06.399Z,98416.84
2023-05-13T20:15:33.437Z,98415.16
2023-05-13T20:18:00.129Z,98411.53
2023-05-13T20:20:26.819Z,98410.84
2023-05-13T20:22:53.488Z,98417.97
2023-05-13T20:25:20.314Z,98416.66
2023-05-13T20:27:46.979Z,98407.84
2023-05-13T20:30:13.888Z,98415.16
2023-05-13T20:32:40.558Z,98412.50
2023-05-13T20:35:07.771Z,98408.19
2023-05-13T20:37:34.511Z,98410.81
2023-05-13T20:40:01.490Z,98410.13
2023-05-13T20:42:28.128Z,98408.81
2023-05-13T20:44:54.735Z,98410.09
2023-05-13T20:47:21.683Z,98409.47
2023-05-13T20:49:48.381Z,98400.16
2023-05-13T20:52:15.086Z,98398.81
2023-05-13T20:54:41.778Z,98397.50
2023-05-13T20:57:08.383Z,98401.84
2023-05-13T20:59:35.084Z,98387.88
2023-05-13T21:02:01.691Z,98394.00
2023-05-13T21:04:28.518Z,98394.50
2023-05-13T21:06:55.118Z,98401.63
2023-05-13T21:09:21.784Z,98397.34
2023-05-13T21:11:48.461Z,98399.66
2023-05-13T21:14:15.177Z,98404.78
2023-05-13T21:16:41.796Z,98408.31
2023-05-13T21:19:08.460Z,98390.31
2023-05-13T21:21:35.067Z,98392.06
2023-05-13T21:24:01.636Z,98384.97
2023-05-13T21:26:28.244Z,98391.63
2023-05-13T21:28:54.884Z,98400.41
2023-05-13T21:31:21.521Z,98400.41
2023-05-13T21:33:49.157Z,98388.94
2023-05-13T21:36:16.260Z,98391.06
2023-05-13T21:38:42.854Z,98386.28
2023-05-13T21:41:09.444Z,98393.56
2023-05-13T21:43:36.115Z,98387.56
2023-05-13T21:46:03.486Z,98381.41
2023-05-13T21:48:30.111Z,98384.41
2023-05-13T21:50:56.701Z,98385.22
2023-05-13T21:53:23.483Z,98382.94
2023-05-13T21:55:50.683Z,98384.78
2023-05-13T21:58:17.711Z,98382.78
2023-05-13T22:00:44.295Z,98382.63
2023-05-13T22:03:10.995Z,98374.28
2023-05-13T22:05:43.770Z,98379.84
2023-05-13T22:08:10.935Z,98374.38
2023-05-13T22:10:37.679Z,98371.66
2023-05-13T22:13:04.247Z,98375.88
2023-05-13T22:15:31.123Z,98378.00
2023-05-13T22:17:57.874Z,98374.22
2023-05-13T22:20:24.889Z,98380.03
2023-05-13T22:22:51.844Z,98367.75
2023-05-13T22:25:18.541Z,98378.34
2023-05-13T22:27:46.593Z,98378.84
2023-05-13T22:30:13.212Z,98368.09
2023-05-13T22:32:40.322Z,98369.91
2023-05-13T22:35:07.526Z,98371.72
2023-05-13T22:37:34.467Z,98372.22
2023-05-13T22:40:01.273Z,98372.38
2023-05-13T22:42:28.079Z,98370.72
2023-05-13T22:44:54.772Z,98365.78
2023-05-13T22:47:21.391Z,98375.03
2023-05-13T22:49:48.012Z,98374.22
2023-05-13T22:52:14.611Z,98365.22
2023-05-13T22:54:41.677Z,98363.38
2023-05-13T22:57:08.283Z,98362.75
2023-05-13T22:59:35.449Z,98365.22
2023-05-13T23:02:02.166Z,98363.22
2023-05-13T23:04:29.075Z,98359.41
2023-05-13T23:06:55.789Z,98354.81
2023-05-13T23:09:22.380Z,98352.00
2023-05-13T23:11:49.017Z,98352.50
2023-05-13T23:14:15.587Z,98343.53
2023-05-13T23:16:42.266Z,98346.53
2023-05-13T23:19:08.993Z,98349.34
2023-05-13T23:21:36.105Z,98341.66
2023-05-13T23:24:02.702Z,98340.81
2023-05-13T23:26:29.271Z,98338.75
2023-05-13T23:28:55.912Z,98336.41
2023-05-13T23:31:22.549Z,98327.47
2023-05-13T23:33:49.166Z,98335.94
2023-05-13T23:36:16.253Z,98329.97
2023-05-13T23:38:42.833Z,98329.81
2023-05-13T23:41:09.414Z,98331.78
2023-05-13T23:43:35.986Z,98313.91
2023-05-13T23:46:02.634Z,98314.06
2023-05-13T23:48:29.270Z,98310.41
2023-05-13T23:50:56.024Z,98311.56
2023-05-13T23:53:22.618Z,98305.25
2023-05-13T23:55:49.191Z,98310.72
2023-05-13T23:58:15.918Z,98314.34
